createdAt,value
2022-09-06T00:02:45.106Z,2.25
2022-09-06T00:07:47.158Z,2.13
2022-09-06T00:12:48.995Z,2.15
2022-09-06T00:17:51.619Z,3.20
2022-09-06T00:23:04.847Z,3.67
2022-09-06T00:28:06.650Z,4.28
2022-09-06T00:33:08.762Z,3.90
2022-09-06T00:38:10.460Z,4.38
2022-09-06T00:43:12.433Z,3.60
2022-09-06T00:48:15.140Z,3.80
2022-09-06T00:53:17.977Z,4.00
2022-09-06T00:58:20.149Z,4.15
2022-09-06T01:03:24.487Z,4.60
2022-09-06T01:09:18.666Z,3.90
2022-09-06T01:14:59.978Z,3.40
2022-09-06T01:20:32.310Z,4.95
2022-09-06T01:25:44.149Z,4.72
2022-09-06T01:30:57.830Z,5.20
2022-09-06T01:36:07.172Z,5.28
2022-09-06T01:41:09.182Z,5.18
2022-09-06T01:46:23.440Z,5.35
2022-09-06T01:51:28.146Z,5.10
2022-09-06T01:57:10.362Z,5.45
2022-09-06T02:02:50.173Z,5.97
2022-09-06T02:07:57.455Z,5.10
2022-09-06T02:13:02.133Z,4.55
2022-09-06T02:18:11.970Z,4.97
2022-09-06T02:23:15.317Z,5.45
2022-09-06T02:28:17.523Z,8.25
2022-09-06T02:33:26.408Z,5.40
2022-09-06T02:38:28.141Z,6.70
2022-09-06T02:43:29.984Z,6.38
2022-09-06T02:48:31.834Z,5.10
2022-09-06T02:53:34.333Z,5.65
2022-09-06T02:58:35.997Z,7.00
2022-09-06T03:03:37.765Z,7.10
2022-09-06T03:08:39.547Z,6.85
2022-09-06T03:13:41.404Z,5.70
2022-09-06T03:18:43.101Z,6.15
2022-09-06T03:23:45.935Z,6.35
2022-09-06T03:28:48.106Z,6.13
2022-09-06T03:33:49.767Z,6.63
2022-09-06T03:38:53.830Z,6.32
2022-09-06T03:43:55.558Z,6.78
2022-09-06T03:48:58.125Z,6.55
2022-09-06T03:54:00.867Z,6.88
2022-09-06T03:59:02.575Z,6.85
2022-09-06T04:04:04.218Z,6.90
2022-09-06T04:09:05.913Z,7.70
2022-09-06T04:14:07.613Z,7.40
2022-09-06T04:19:09.381Z,7.65
2022-09-06T04:24:11.201Z,7.90
2022-09-06T04:29:13.161Z,8.32
2022-09-06T04:34:16.517Z,9.02
2022-09-06T04:39:18.386Z,8.82
2022-09-06T04:44:20.074Z,11.52
2022-09-06T04:49:23.734Z,9.40
2022-09-06T04:54:25.539Z,11.32
2022-09-06T04:59:27.197Z,10.30
2022-09-06T05:04:29.015Z,9.85
2022-09-06T05:09:31.884Z,10.13
2022-09-06T05:14:33.771Z,9.75
2022-09-06T05:19:35.705Z,10.02
2022-09-06T05:24:38.458Z,11.27
2022-09-06T05:29:40.156Z,11.93
2022-09-06T05:34:41.864Z,12.60
2022-09-06T05:39:43.761Z,12.38
2022-09-06T05:44:45.531Z,11.85
2022-09-06T05:49:47.286Z,11.48
2022-09-06T05:54:49.005Z,12.02
2022-09-06T05:59:50.815Z,12.38
2022-09-06T06:04:52.755Z,11.70
2022-09-06T06:09:54.546Z,11.73
2022-09-06T06:14:56.226Z,10.57
2022-09-06T06:20:01.098Z,11.25
2022-09-06T06:25:03.119Z,12.80
2022-09-06T06:30:05.147Z,12.13
2022-09-06T06:35:07.216Z,11.10
2022-09-06T06:40:09.773Z,11.10
2022-09-06T06:45:11.571Z,11.82
2022-09-06T06:50:13.339Z,12.95
2022-09-06T06:55:15.207Z,11.57
2022-09-06T07:00:17.099Z,14.10
2022-09-06T07:10:40.794Z,12.57
2022-09-06T07:15:42.574Z,11.43
2022-09-06T07:26:06.996Z,11.88
2022-09-06T07:36:30.993Z,11.60
2022-09-06T07:41:32.670Z,10.60
2022-09-06T07:46:34.568Z,9.98
2022-09-06T07:51:36.712Z,9.43
2022-09-06T07:56:38.492Z,10.25
2022-09-06T08:01:41.171Z,11.05
2022-09-06T08:12:08.489Z,9.68
2022-09-06T08:17:10.158Z,10.55
2022-09-06T08:22:13.087Z,10.18
2022-09-06T08:27:14.967Z,10.02
2022-09-06T08:32:17.225Z,11.02
2022-09-06T08:37:24.839Z,9.98
2022-09-06T08:42:27.906Z,9.90
2022-09-06T08:47:29.578Z,9.52
2022-09-06T08:52:41.825Z,8.65
2022-09-06T08:58:21.055Z,8.45
2022-09-06T09:03:32.578Z,8.68
2022-09-06T09:08:52.825Z,7.13
2022-09-06T09:14:23.610Z,5.78
2022-09-06T09:19:25.378Z,7.03
2022-09-06T09:24:28.500Z,6.75
2022-09-06T09:29:34.367Z,6.43
2022-09-06T09:34:39.968Z,6.22
2022-09-06T09:39:41.881Z,6.70
2022-09-06T09:44:44.755Z,6.20
2022-09-06T09:49:46.449Z,5.40
2022-09-06T09:54:50.679Z,3.40
2022-09-06T09:59:58.351Z,3.20
2022-09-06T10:05:12.359Z,3.10
2022-09-06T10:10:25.708Z,3.67
2022-09-06T10:15:35.926Z,3.55
2022-09-06T10:20:43.381Z,4.00
2022-09-06T10:26:46.861Z,4.18
2022-09-06T10:31:48.528Z,3.28
2022-09-06T10:37:14.065Z,4.60
2022-09-06T10:42:15.724Z,3.53
2022-09-06T10:47:18.213Z,3.88
2022-09-06T10:52:32.782Z,3.80
2022-09-06T11:08:59.431Z,4.20
2022-09-06T11:14:09.511Z,3.70
2022-09-06T11:19:29.319Z,3.40
2022-09-06T11:24:55.691Z,4.13
2022-09-06T11:30:00.516Z,3.45
2022-09-06T11:35:07.390Z,4.22
2022-09-06T11:45:47.543Z,3.40
2022-09-06T11:51:06.689Z,3.03
2022-09-06T11:56:08.676Z,3.03
2022-09-06T12:01:13.378Z,3.22
2022-09-06T12:06:31.598Z,4.63
2022-09-06T12:11:45.917Z,4.50
2022-09-06T12:17:04.886Z,3.50
2022-09-06T12:22:31.771Z,3.70
2022-09-06T12:27:37.713Z,4.72
2022-09-06T12:32:48.425Z,5.50
2022-09-06T12:37:55.631Z,4.70
2022-09-06T12:42:58.088Z,6.40
2022-09-06T12:48:08.934Z,5.25
2022-09-06T12:53:24.569Z,4.28
2022-09-06T12:58:29.421Z,4.17
2022-09-06T13:03:39.766Z,5.00
2022-09-06T13:08:47.361Z,2.78
2022-09-06T13:13:51.754Z,3.33
2022-09-06T13:18:53.989Z,4.07
2022-09-06T13:23:55.750Z,2.40
2022-09-06T13:28:57.539Z,3.72
2022-09-06T13:34:00.039Z,4.25
2022-09-06T13:39:03.784Z,4.55
2022-09-06T13:44:11.656Z,3.88
2022-09-06T13:49:14.096Z,4.07
2022-09-06T13:54:16.651Z,3.75
2022-09-06T13:59:19.008Z,3.17
2022-09-06T14:04:21.603Z,4.25
2022-09-06T14:09:23.899Z,4.70
2022-09-06T14:14:25.594Z,4.03
2022-09-06T14:19:27.746Z,5.03
2022-09-06T14:24:29.585Z,4.57
2022-09-06T14:29:31.615Z,4.85
2022-09-06T14:34:33.345Z,4.55
2022-09-06T14:39:35.221Z,3.45
2022-09-06T14:44:36.967Z,2.92
2022-09-06T14:49:38.827Z,4.03
2022-09-06T14:54:40.528Z,3.67
2022-09-06T14:59:42.292Z,3.35
2022-09-06T15:04:44.131Z,2.80
2022-09-06T15:09:46.125Z,2.85
2022-09-06T15:14:47.820Z,2.70
2022-09-06T15:19:49.829Z,2.85
2022-09-06T15:24:51.609Z,2.30
2022-09-06T15:29:53.538Z,2.58
2022-09-06T15:34:55.577Z,2.42
2022-09-06T15:39:57.503Z,2.65
2022-09-06T15:44:59.767Z,2.67
2022-09-06T15:50:02.263Z,3.28
2022-09-06T15:55:22.852Z,2.95
2022-09-06T16:00:24.659Z,3.47
2022-09-06T16:10:48.565Z,2.55
2022-09-06T16:16:00.949Z,3.00
2022-09-06T16:21:10.149Z,2.88
2022-09-06T16:26:12.036Z,2.80
2022-09-06T16:31:13.930Z,2.63
2022-09-06T16:36:17.118Z,2.90
2022-09-06T16:41:32.675Z,2.42
2022-09-06T16:46:34.861Z,2.35
2022-09-06T16:51:36.790Z,3.05
2022-09-06T16:56:39.562Z,2.80
2022-09-06T17:01:45.350Z,2.50
2022-09-06T17:06:47.453Z,2.75
2022-09-06T17:11:51.682Z,2.17
2022-09-06T17:17:05.344Z,3.00
2022-09-06T17:22:10.063Z,3.05
2022-09-06T17:27:13.020Z,3.10
2022-09-06T17:32:14.873Z,3.22
2022-09-06T17:37:16.868Z,2.85
2022-09-06T17:42:18.879Z,3.63
2022-09-06T17:47:20.661Z,4.07
2022-09-06T17:52:22.407Z,3.45
2022-09-06T17:57:24.085Z,3.83
2022-09-06T18:02:25.769Z,3.20
2022-09-06T18:07:27.493Z,3.15
2022-09-06T18:12:30.959Z,4.70
2022-09-06T18:17:32.732Z,4.90
2022-09-06T18:22:34.618Z,4.28
2022-09-06T18:27:36.374Z,4.05
2022-09-06T18:32:38.154Z,4.53
2022-09-06T18:37:40.158Z,3.55
2022-09-06T18:42:44.242Z,4.30
2022-09-06T18:47:46.237Z,3.78
2022-09-06T18:52:47.926Z,3.65
2022-09-06T18:57:49.950Z,3.72
2022-09-06T19:02:51.856Z,4.20
2022-09-06T19:07:54.643Z,4.18
2022-09-06T19:12:57.132Z,4.88
2022-09-06T19:17:58.817Z,5.45
2022-09-06T19:23:00.504Z,4.82
2022-09-06T19:28:02.354Z,4.50
2022-09-06T19:33:04.180Z,4.97
2022-09-06T19:38:05.877Z,5.40
2022-09-06T19:43:08.593Z,4.78
2022-09-06T19:48:10.598Z,5.93
2022-09-06T19:53:12.342Z,4.72
2022-09-06T19:58:14.055Z,5.45
2022-09-06T20:03:15.710Z,7.00
2022-09-06T20:08:17.862Z,5.70
2022-09-06T20:13:19.716Z,5.90
2022-09-06T20:18:21.929Z,5.85
2022-09-06T20:23:23.613Z,5.18
2022-09-06T20:28:25.451Z,6.53
2022-09-06T20:33:27.444Z,6.40
2022-09-06T20:38:33.772Z,5.90
2022-09-06T20:43:37.138Z,6.22
2022-09-06T20:48:44.164Z,6.45
2022-09-06T20:53:51.439Z,6.95
2022-09-06T20:58:55.386Z,8.20
2022-09-06T21:03:59.757Z,6.63
2022-09-06T21:09:06.634Z,6.50
2022-09-06T21:14:09.548Z,5.78
2022-09-06T21:19:12.042Z,5.35
2022-09-06T21:24:14.875Z,6.00
2022-09-06T21:29:17.441Z,5.63
2022-09-06T21:34:19.279Z,6.28
2022-09-06T21:39:21.297Z,6.28
2022-09-06T21:44:23.095Z,7.15
2022-09-06T21:49:24.775Z,6.95
2022-09-06T21:54:26.711Z,7.95
2022-09-06T21:59:28.413Z,7.63
2022-09-06T22:04:30.081Z,9.85
2022-09-06T22:09:31.778Z,9.10
2022-09-06T22:14:33.601Z,9.23
2022-09-06T22:19:36.195Z,8.93
2022-09-06T22:24:37.896Z,9.15
2022-09-06T22:29:39.866Z,8.45
2022-09-06T22:34:41.754Z,8.25
2022-09-06T22:39:44.242Z,10.18
2022-09-06T22:44:46.135Z,9.27
2022-09-06T22:49:47.974Z,6.70
2022-09-06T22:54:49.631Z,8.40
2022-09-06T22:59:51.403Z,8.50
2022-09-06T23:04:54.720Z,9.23
2022-09-06T23:09:56.596Z,9.15
2022-09-06T23:14:58.286Z,8.70
2022-09-06T23:20:00.046Z,8.88
2022-09-06T23:25:01.763Z,9.27
2022-09-06T23:30:04.424Z,7.78
2022-09-06T23:35:06.556Z,4.50
2022-09-06T23:40:09.334Z,3.92
2022-09-06T23:45:11.293Z,3.20
2022-09-06T23:50:13.090Z,1.88
2022-09-06T23:55:14.973Z,3.13
